Terminal Aerodrome Forecast
Issued by NWS Shreveport, LA

Home | Current Version | Previous Version | Text Only | Print | Product List | Glossary On
Versions: 1 2 3 4 5 6 7 8 9 10 11 12 13 14 15 16 17 18 19 20
000
FTUS44 KSHV 200800 AAB
TAFMLU
TAF AMD
KMLU 200850Z 2009/2106 00000KT 5SM BR SKC
      TEMPO 2009/2012 1/2SM FG VV002
     FM201400 VRB03KT P6SM SCT300
     FM202300 VRB03KT P6SM SCT050=

USA.gov is the U.S. government's official web portal to all federal, state and local government web resources and services.